sensor_id;sensor_type;location;lat;lon;timestamp;P1;durP1;ratioP1;P2;durP2;ratioP2
27383;SDS011;14851;51.166;4.760;2022-12-07T00:01:06;24.80;;;16.88;;
27383;SDS011;14851;51.166;4.760;2022-12-07T00:03:34;20.77;;;15.55;;
27383;SDS011;14851;51.166;4.760;2022-12-07T00:06:06;20.02;;;15.20;;
27383;SDS011;14851;51.166;4.760;2022-12-07T00:11:07;20.48;;;14.63;;
27383;SDS011;14851;51.166;4.760;2022-12-07T00:13:34;22.60;;;16.02;;
27383;SDS011;14851;51.166;4.760;2022-12-07T00:16:01;33.90;;;17.30;;
27383;SDS011;14851;51.166;4.760;2022-12-07T00:18:35;21.88;;;15.38;;
27383;SDS011;14851;51.166;4.760;2022-12-07T00:21:06;19.92;;;15.65;;
27383;SDS011;14851;51.166;4.760;2022-12-07T00:23:37;24.77;;;14.85;;
27383;SDS011;14851;51.166;4.760;2022-12-07T00:26:08;18.48;;;13.43;;
27383;SDS011;14851;51.166;4.760;2022-12-07T00:28:46;17.73;;;13.50;;
27383;SDS011;14851;51.166;4.760;2022-12-07T00:31:18;18.98;;;13.45;;
27383;SDS011;14851;51.166;4.760;2022-12-07T00:33:45;21.38;;;13.27;;
27383;SDS011;14851;51.166;4.760;2022-12-07T00:36:16;18.70;;;12.32;;
27383;SDS011;14851;51.166;4.760;2022-12-07T00:38:44;15.82;;;11.80;;
27383;SDS011;14851;51.166;4.760;2022-12-07T00:41:11;19.00;;;12.77;;
27383;SDS011;14851;51.166;4.760;2022-12-07T00:43:43;20.13;;;14.27;;
27383;SDS011;14851;51.166;4.760;2022-12-07T00:46:11;21.98;;;14.63;;
27383;SDS011;14851;51.166;4.760;2022-12-07T00:48:39;20.20;;;13.50;;
27383;SDS011;14851;51.166;4.760;2022-12-07T00:51:09;18.95;;;12.88;;
27383;SDS011;14851;51.166;4.760;2022-12-07T00:53:37;18.45;;;12.32;;
27383;SDS011;14851;51.166;4.760;2022-12-07T00:56:08;19.58;;;13.40;;
27383;SDS011;14851;51.166;4.760;2022-12-07T00:58:37;16.83;;;12.48;;
27383;SDS011;14851;51.166;4.760;2022-12-07T01:01:04;18.60;;;13.05;;
27383;SDS011;14851;51.166;4.760;2022-12-07T01:03:31;19.48;;;12.73;;
27383;SDS011;14851;51.166;4.760;2022-12-07T01:05:58;22.98;;;13.35;;
27383;SDS011;14851;51.166;4.760;2022-12-07T01:08:28;21.70;;;13.73;;
27383;SDS011;14851;51.166;4.760;2022-12-07T01:11:05;19.27;;;13.88;;
27383;SDS011;14851;51.166;4.760;2022-12-07T01:13:35;20.38;;;12.52;;
27383;SDS011;14851;51.166;4.760;2022-12-07T01:16:03;23.35;;;13.98;;
27383;SDS011;14851;51.166;4.760;2022-12-07T01:18:31;21.17;;;14.05;;
27383;SDS011;14851;51.166;4.760;2022-12-07T01:21:14;21.65;;;14.70;;
27383;SDS011;14851;51.166;4.760;2022-12-07T01:23:43;19.10;;;13.77;;
27383;SDS011;14851;51.166;4.760;2022-12-07T01:26:12;22.80;;;13.52;;
27383;SDS011;14851;51.166;4.760;2022-12-07T01:28:42;21.23;;;13.75;;
27383;SDS011;14851;51.166;4.760;2022-12-07T01:31:10;24.67;;;14.77;;
27383;SDS011;14851;51.166;4.760;2022-12-07T01:33:40;23.20;;;14.23;;
27383;SDS011;14851;51.166;4.760;2022-12-07T01:36:18;26.38;;;15.38;;
27383;SDS011;14851;51.166;4.760;2022-12-07T01:38:53;22.13;;;13.23;;
27383;SDS011;14851;51.166;4.760;2022-12-07T01:41:24;21.13;;;12.65;;
27383;SDS011;14851;51.166;4.760;2022-12-07T01:46:38;25.73;;;15.02;;
27383;SDS011;14851;51.166;4.760;2022-12-07T01:49:05;26.67;;;16.60;;
27383;SDS011;14851;51.166;4.760;2022-12-07T01:51:35;25.88;;;14.35;;
27383;SDS011;14851;51.166;4.760;2022-12-07T01:54:05;38.15;;;20.05;;
27383;SDS011;14851;51.166;4.760;2022-12-07T01:56:32;33.72;;;18.35;;
27383;SDS011;14851;51.166;4.760;2022-12-07T01:59:00;25.52;;;16.05;;
27383;SDS011;14851;51.166;4.760;2022-12-07T02:01:27;23.27;;;14.73;;
27383;SDS011;14851;51.166;4.760;2022-12-07T02:03:54;24.30;;;15.60;;
27383;SDS011;14851;51.166;4.760;2022-12-07T02:06:22;26.83;;;16.65;;
27383;SDS011;14851;51.166;4.760;2022-12-07T02:08:51;32.53;;;18.50;;
27383;SDS011;14851;51.166;4.760;2022-12-07T02:11:18;27.55;;;17.55;;
27383;SDS011;14851;51.166;4.760;2022-12-07T02:13:44;23.60;;;13.95;;
27383;SDS011;14851;51.166;4.760;2022-12-07T02:22:39;24.20;;;14.52;;
27383;SDS011;14851;51.166;4.760;2022-12-07T02:25:19;24.75;;;14.63;;
27383;SDS011;14851;51.166;4.760;2022-12-07T02:28:09;20.40;;;14.52;;
27383;SDS011;14851;51.166;4.760;2022-12-07T02:30:58;27.08;;;17.35;;
27383;SDS011;14851;51.166;4.760;2022-12-07T02:33:41;25.50;;;16.98;;
27383;SDS011;14851;51.166;4.760;2022-12-07T02:36:22;19.75;;;14.75;;
27383;SDS011;14851;51.166;4.760;2022-12-07T02:44:10;19.90;;;14.65;;
27383;SDS011;14851;51.166;4.760;2022-12-07T02:46:42;22.25;;;14.90;;
27383;SDS011;14851;51.166;4.760;2022-12-07T02:49:12;19.83;;;13.57;;
27383;SDS011;14851;51.166;4.760;2022-12-07T02:51:41;21.98;;;14.13;;
27383;SDS011;14851;51.166;4.760;2022-12-07T02:54:13;21.65;;;15.13;;
27383;SDS011;14851;51.166;4.760;2022-12-07T03:00:00;21.75;;;14.85;;
27383;SDS011;14851;51.166;4.760;2022-12-07T03:14:27;17.50;;;13.15;;
27383;SDS011;14851;51.166;4.760;2022-12-07T03:19:32;18.95;;;12.45;;
27383;SDS011;14851;51.166;4.760;2022-12-07T03:22:00;20.65;;;11.52;;
27383;SDS011;14851;51.166;4.760;2022-12-07T03:24:33;17.80;;;12.70;;
27383;SDS011;14851;51.166;4.760;2022-12-07T03:27:06;15.50;;;11.32;;
27383;SDS011;14851;51.166;4.760;2022-12-07T03:29:40;14.50;;;10.80;;
27383;SDS011;14851;51.166;4.760;2022-12-07T03:32:30;17.30;;;12.23;;
27383;SDS011;14851;51.166;4.760;2022-12-07T03:35:09;19.00;;;12.48;;
27383;SDS011;14851;51.166;4.760;2022-12-07T03:41:25;16.25;;;10.88;;
27383;SDS011;14851;51.166;4.760;2022-12-07T03:43:33;16.53;;;11.97;;
27383;SDS011;14851;51.166;4.760;2022-12-07T03:48:50;15.07;;;11.80;;
27383;SDS011;14851;51.166;4.760;2022-12-07T03:51:28;16.20;;;11.60;;
27383;SDS011;14851;51.166;4.760;2022-12-07T03:54:21;12.75;;;10.73;;
27383;SDS011;14851;51.166;4.760;2022-12-07T03:56:56;17.48;;;11.27;;
27383;SDS011;14851;51.166;4.760;2022-12-07T03:59:24;20.95;;;11.90;;
27383;SDS011;14851;51.166;4.760;2022-12-07T04:01:53;14.43;;;10.20;;
27383;SDS011;14851;51.166;4.760;2022-12-07T04:04:21;18.05;;;11.38;;
27383;SDS011;14851;51.166;4.760;2022-12-07T04:06:49;13.18;;;10.55;;
27383;SDS011;14851;51.166;4.760;2022-12-07T04:09:18;19.02;;;10.90;;
27383;SDS011;14851;51.166;4.760;2022-12-07T04:11:43;15.57;;;11.90;;
27383;SDS011;14851;51.166;4.760;2022-12-07T04:14:11;16.15;;;11.48;;
27383;SDS011;14851;51.166;4.760;2022-12-07T04:16:50;17.27;;;12.48;;
27383;SDS011;14851;51.166;4.760;2022-12-07T04:19:18;22.88;;;12.30;;
27383;SDS011;14851;51.166;4.760;2022-12-07T04:21:47;16.10;;;12.05;;
27383;SDS011;14851;51.166;4.760;2022-12-07T04:24:15;19.83;;;12.57;;
27383;SDS011;14851;51.166;4.760;2022-12-07T04:26:43;17.58;;;12.45;;
27383;SDS011;14851;51.166;4.760;2022-12-07T04:29:09;31.80;;;19.42;;
27383;SDS011;14851;51.166;4.760;2022-12-07T04:31:36;20.92;;;13.80;;
27383;SDS011;14851;51.166;4.760;2022-12-07T04:34:03;19.23;;;12.73;;
27383;SDS011;14851;51.166;4.760;2022-12-07T04:36:33;21.73;;;15.10;;
27383;SDS011;14851;51.166;4.760;2022-12-07T04:39:03;20.23;;;13.15;;
27383;SDS011;14851;51.166;4.760;2022-12-07T04:41:32;20.45;;;12.90;;
27383;SDS011;14851;51.166;4.760;2022-12-07T04:44:02;14.40;;;12.15;;
27383;SDS011;14851;51.166;4.760;2022-12-07T04:46:32;18.85;;;12.98;;
27383;SDS011;14851;51.166;4.760;2022-12-07T04:48:58;20.75;;;12.70;;
27383;SDS011;14851;51.166;4.760;2022-12-07T04:51:32;18.63;;;12.82;;
27383;SDS011;14851;51.166;4.760;2022-12-07T04:53:58;21.77;;;13.88;;
27383;SDS011;14851;51.166;4.760;2022-12-07T04:56:24;18.90;;;13.88;;
27383;SDS011;14851;51.166;4.760;2022-12-07T04:58:51;24.75;;;15.50;;
27383;SDS011;14851;51.166;4.760;2022-12-07T05:01:18;34.47;;;25.58;;
27383;SDS011;14851;51.166;4.760;2022-12-07T05:03:46;55.20;;;39.42;;
27383;SDS011;14851;51.166;4.760;2022-12-07T05:06:12;37.97;;;25.83;;
27383;SDS011;14851;51.166;4.760;2022-12-07T05:08:41;28.58;;;22.05;;
27383;SDS011;14851;51.166;4.760;2022-12-07T05:11:08;26.38;;;19.88;;
27383;SDS011;14851;51.166;4.760;2022-12-07T05:13:35;24.83;;;20.42;;
27383;SDS011;14851;51.166;4.760;2022-12-07T05:16:02;26.60;;;19.67;;
27383;SDS011;14851;51.166;4.760;2022-12-07T05:18:30;20.10;;;16.98;;
27383;SDS011;14851;51.166;4.760;2022-12-07T05:20:57;20.52;;;15.15;;
27383;SDS011;14851;51.166;4.760;2022-12-07T05:23:24;17.85;;;13.38;;
27383;SDS011;14851;51.166;4.760;2022-12-07T05:25:50;20.55;;;15.73;;
27383;SDS011;14851;51.166;4.760;2022-12-07T05:28:16;20.75;;;14.02;;
27383;SDS011;14851;51.166;4.760;2022-12-07T05:30:43;19.65;;;14.07;;
27383;SDS011;14851;51.166;4.760;2022-12-07T05:33:10;20.80;;;15.43;;
27383;SDS011;14851;51.166;4.760;2022-12-07T05:35:39;17.55;;;12.95;;
27383;SDS011;14851;51.166;4.760;2022-12-07T05:38:09;20.75;;;12.05;;
27383;SDS011;14851;51.166;4.760;2022-12-07T05:40:36;21.10;;;12.87;;
27383;SDS011;14851;51.166;4.760;2022-12-07T05:43:02;15.95;;;11.23;;
27383;SDS011;14851;51.166;4.760;2022-12-07T05:45:32;21.35;;;14.80;;
27383;SDS011;14851;51.166;4.760;2022-12-07T05:47:57;30.63;;;22.58;;
27383;SDS011;14851;51.166;4.760;2022-12-07T05:50:24;35.50;;;23.58;;
27383;SDS011;14851;51.166;4.760;2022-12-07T05:52:59;29.38;;;22.38;;
27383;SDS011;14851;51.166;4.760;2022-12-07T05:55:25;30.50;;;20.20;;
27383;SDS011;14851;51.166;4.760;2022-12-07T05:57:51;29.67;;;21.60;;
27383;SDS011;14851;51.166;4.760;2022-12-07T06:00:38;22.70;;;15.48;;
27383;SDS011;14851;51.166;4.760;2022-12-07T06:03:07;22.75;;;16.85;;
27383;SDS011;14851;51.166;4.760;2022-12-07T06:05:33;30.80;;;21.15;;
27383;SDS011;14851;51.166;4.760;2022-12-07T06:07:59;27.67;;;17.10;;
27383;SDS011;14851;51.166;4.760;2022-12-07T06:10:25;35.25;;;24.42;;
27383;SDS011;14851;51.166;4.760;2022-12-07T06:12:51;39.50;;;26.30;;
27383;SDS011;14851;51.166;4.760;2022-12-07T06:15:18;30.50;;;18.17;;
27383;SDS011;14851;51.166;4.760;2022-12-07T06:17:44;28.20;;;17.65;;
27383;SDS011;14851;51.166;4.760;2022-12-07T06:20:10;27.73;;;17.17;;
27383;SDS011;14851;51.166;4.760;2022-12-07T06:22:36;24.13;;;17.60;;
27383;SDS011;14851;51.166;4.760;2022-12-07T06:25:04;23.33;;;14.68;;
27383;SDS011;14851;51.166;4.760;2022-12-07T06:27:30;21.98;;;15.25;;
27383;SDS011;14851;51.166;4.760;2022-12-07T06:29:58;23.40;;;14.77;;
27383;SDS011;14851;51.166;4.760;2022-12-07T06:32:25;23.92;;;16.80;;
27383;SDS011;14851;51.166;4.760;2022-12-07T06:34:52;20.48;;;14.20;;
27383;SDS011;14851;51.166;4.760;2022-12-07T06:37:21;23.02;;;13.98;;
27383;SDS011;14851;51.166;4.760;2022-12-07T06:39:47;22.48;;;14.15;;
27383;SDS011;14851;51.166;4.760;2022-12-07T06:42:12;19.42;;;13.82;;
27383;SDS011;14851;51.166;4.760;2022-12-07T06:44:38;18.08;;;13.70;;
27383;SDS011;14851;51.166;4.760;2022-12-07T06:47:04;60.45;;;16.75;;
27383;SDS011;14851;51.166;4.760;2022-12-07T06:49:32;19.08;;;13.82;;
27383;SDS011;14851;51.166;4.760;2022-12-07T06:51:59;17.17;;;13.05;;
27383;SDS011;14851;51.166;4.760;2022-12-07T06:54:26;19.25;;;13.27;;
27383;SDS011;14851;51.166;4.760;2022-12-07T06:56:52;20.75;;;12.88;;
27383;SDS011;14851;51.166;4.760;2022-12-07T06:59:20;18.48;;;13.77;;
27383;SDS011;14851;51.166;4.760;2022-12-07T07:01:49;22.20;;;13.88;;
27383;SDS011;14851;51.166;4.760;2022-12-07T07:04:16;26.40;;;17.05;;
27383;SDS011;14851;51.166;4.760;2022-12-07T07:06:45;40.33;;;21.55;;
27383;SDS011;14851;51.166;4.760;2022-12-07T07:09:12;33.13;;;19.02;;
27383;SDS011;14851;51.166;4.760;2022-12-07T07:11:38;30.17;;;18.80;;
27383;SDS011;14851;51.166;4.760;2022-12-07T07:14:04;25.58;;;15.00;;
27383;SDS011;14851;51.166;4.760;2022-12-07T07:16:31;20.38;;;14.50;;
27383;SDS011;14851;51.166;4.760;2022-12-07T07:18:58;20.10;;;12.63;;
27383;SDS011;14851;51.166;4.760;2022-12-07T07:21:25;17.15;;;12.00;;
27383;SDS011;14851;51.166;4.760;2022-12-07T07:23:51;22.05;;;14.10;;
27383;SDS011;14851;51.166;4.760;2022-12-07T07:26:18;20.42;;;13.60;;
27383;SDS011;14851;51.166;4.760;2022-12-07T07:28:46;19.08;;;12.88;;
27383;SDS011;14851;51.166;4.760;2022-12-07T07:31:12;18.38;;;12.10;;
27383;SDS011;14851;51.166;4.760;2022-12-07T07:33:39;23.30;;;13.60;;
27383;SDS011;14851;51.166;4.760;2022-12-07T07:36:06;30.98;;;14.88;;
27383;SDS011;14851;51.166;4.760;2022-12-07T07:38:36;27.27;;;17.13;;
27383;SDS011;14851;51.166;4.760;2022-12-07T07:41:02;25.30;;;18.80;;
27383;SDS011;14851;51.166;4.760;2022-12-07T07:43:29;33.83;;;20.48;;
27383;SDS011;14851;51.166;4.760;2022-12-07T07:45:55;26.33;;;16.92;;
27383;SDS011;14851;51.166;4.760;2022-12-07T07:48:22;25.50;;;17.08;;
27383;SDS011;14851;51.166;4.760;2022-12-07T07:50:51;22.95;;;15.63;;
27383;SDS011;14851;51.166;4.760;2022-12-07T07:53:19;24.00;;;14.45;;
27383;SDS011;14851;51.166;4.760;2022-12-07T07:55:54;30.15;;;18.73;;
27383;SDS011;14851;51.166;4.760;2022-12-07T07:58:22;25.45;;;15.25;;
27383;SDS011;14851;51.166;4.760;2022-12-07T08:00:48;22.17;;;14.48;;
27383;SDS011;14851;51.166;4.760;2022-12-07T08:03:16;22.77;;;12.20;;
27383;SDS011;14851;51.166;4.760;2022-12-07T08:05:42;20.85;;;13.40;;
27383;SDS011;14851;51.166;4.760;2022-12-07T08:08:10;20.77;;;12.13;;
27383;SDS011;14851;51.166;4.760;2022-12-07T08:10:39;25.77;;;12.80;;
27383;SDS011;14851;51.166;4.760;2022-12-07T08:13:05;21.30;;;12.48;;
27383;SDS011;14851;51.166;4.760;2022-12-07T08:15:42;20.92;;;13.23;;
27383;SDS011;14851;51.166;4.760;2022-12-07T08:18:10;21.15;;;13.55;;
27383;SDS011;14851;51.166;4.760;2022-12-07T08:20:41;22.30;;;12.88;;
27383;SDS011;14851;51.166;4.760;2022-12-07T08:23:09;19.50;;;11.85;;
27383;SDS011;14851;51.166;4.760;2022-12-07T08:25:39;19.25;;;12.40;;
27383;SDS011;14851;51.166;4.760;2022-12-07T08:28:06;22.65;;;13.05;;
27383;SDS011;14851;51.166;4.760;2022-12-07T08:30:33;17.73;;;11.77;;
27383;SDS011;14851;51.166;4.760;2022-12-07T08:32:58;19.60;;;12.57;;
27383;SDS011;14851;51.166;4.760;2022-12-07T08:35:25;22.98;;;12.95;;
27383;SDS011;14851;51.166;4.760;2022-12-07T08:37:52;30.35;;;14.57;;
27383;SDS011;14851;51.166;4.760;2022-12-07T08:40:19;17.83;;;13.23;;
27383;SDS011;14851;51.166;4.760;2022-12-07T08:42:50;22.52;;;12.68;;
27383;SDS011;14851;51.166;4.760;2022-12-07T08:45:17;22.02;;;11.65;;
27383;SDS011;14851;51.166;4.760;2022-12-07T08:47:46;19.23;;;11.18;;
27383;SDS011;14851;51.166;4.760;2022-12-07T08:50:16;16.30;;;10.93;;
27383;SDS011;14851;51.166;4.760;2022-12-07T08:52:43;26.55;;;11.55;;
27383;SDS011;14851;51.166;4.760;2022-12-07T08:55:09;15.90;;;11.35;;
27383;SDS011;14851;51.166;4.760;2022-12-07T08:57:37;19.85;;;11.48;;
27383;SDS011;14851;51.166;4.760;2022-12-07T09:00:04;16.98;;;10.02;;
27383;SDS011;14851;51.166;4.760;2022-12-07T09:02:41;21.75;;;10.27;;
27383;SDS011;14851;51.166;4.760;2022-12-07T09:05:08;16.40;;;9.55;;
27383;SDS011;14851;51.166;4.760;2022-12-07T09:07:37;17.58;;;9.32;;
27383;SDS011;14851;51.166;4.760;2022-12-07T09:10:06;20.92;;;9.77;;
27383;SDS011;14851;51.166;4.760;2022-12-07T09:12:38;16.92;;;9.13;;
27383;SDS011;14851;51.166;4.760;2022-12-07T09:15:04;18.50;;;9.93;;
27383;SDS011;14851;51.166;4.760;2022-12-07T09:17:34;19.35;;;12.10;;
27383;SDS011;14851;51.166;4.760;2022-12-07T09:20:05;19.20;;;11.98;;
27383;SDS011;14851;51.166;4.760;2022-12-07T09:22:54;20.90;;;10.23;;
27383;SDS011;14851;51.166;4.760;2022-12-07T09:25:22;16.57;;;9.40;;
27383;SDS011;14851;51.166;4.760;2022-12-07T09:27:56;13.20;;;8.68;;
27383;SDS011;14851;51.166;4.760;2022-12-07T09:30:26;15.98;;;9.45;;
27383;SDS011;14851;51.166;4.760;2022-12-07T09:32:55;15.48;;;8.85;;
27383;SDS011;14851;51.166;4.760;2022-12-07T09:37:53;17.45;;;9.75;;
27383;SDS011;14851;51.166;4.760;2022-12-07T09:42:51;18.20;;;9.10;;
27383;SDS011;14851;51.166;4.760;2022-12-07T09:45:21;12.63;;;7.97;;
27383;SDS011;14851;51.166;4.760;2022-12-07T09:48:51;17.90;;;9.40;;
27383;SDS011;14851;51.166;4.760;2022-12-07T09:51:14;16.15;;;8.55;;
27383;SDS011;14851;51.166;4.760;2022-12-07T09:53:44;15.60;;;9.05;;
27383;SDS011;14851;51.166;4.760;2022-12-07T09:56:14;16.88;;;9.30;;
27383;SDS011;14851;51.166;4.760;2022-12-07T09:58:42;15.52;;;9.50;;
27383;SDS011;14851;51.166;4.760;2022-12-07T10:01:11;15.80;;;9.00;;
27383;SDS011;14851;51.166;4.760;2022-12-07T10:03:47;15.18;;;8.55;;
27383;SDS011;14851;51.166;4.760;2022-12-07T10:06:14;16.25;;;8.30;;
27383;SDS011;14851;51.166;4.760;2022-12-07T10:08:40;18.00;;;7.68;;
27383;SDS011;14851;51.166;4.760;2022-12-07T10:11:09;13.35;;;7.80;;
27383;SDS011;14851;51.166;4.760;2022-12-07T10:13:43;13.93;;;8.02;;
27383;SDS011;14851;51.166;4.760;2022-12-07T10:16:31;21.83;;;9.18;;
27383;SDS011;14851;51.166;4.760;2022-12-07T10:24:43;16.98;;;8.13;;
27383;SDS011;14851;51.166;4.760;2022-12-07T10:29:54;18.38;;;7.85;;
27383;SDS011;14851;51.166;4.760;2022-12-07T10:32:28;16.15;;;7.40;;
27383;SDS011;14851;51.166;4.760;2022-12-07T10:37:57;17.45;;;7.10;;
27383;SDS011;14851;51.166;4.760;2022-12-07T10:40:31;14.50;;;7.00;;
27383;SDS011;14851;51.166;4.760;2022-12-07T10:50:59;14.52;;;6.60;;
27383;SDS011;14851;51.166;4.760;2022-12-07T11:02:01;18.05;;;7.05;;
27383;SDS011;14851;51.166;4.760;2022-12-07T11:07:19;16.42;;;6.85;;
27383;SDS011;14851;51.166;4.760;2022-12-07T11:38:28;13.98;;;5.45;;
27383;SDS011;14851;51.166;4.760;2022-12-07T11:44:16;14.95;;;6.55;;
27383;SDS011;14851;51.166;4.760;2022-12-07T11:49:45;9.63;;;4.30;;
27383;SDS011;14851;51.166;4.760;2022-12-07T11:55:56;9.30;;;4.05;;
27383;SDS011;14851;51.166;4.760;2022-12-07T11:58:37;12.90;;;4.63;;
27383;SDS011;14851;51.166;4.760;2022-12-07T12:01:09;12.25;;;4.88;;
27383;SDS011;14851;51.166;4.760;2022-12-07T12:03:42;11.10;;;4.10;;
27383;SDS011;14851;51.166;4.760;2022-12-07T12:06:16;10.40;;;3.83;;
27383;SDS011;14851;51.166;4.760;2022-12-07T12:08:48;11.48;;;3.88;;
27383;SDS011;14851;51.166;4.760;2022-12-07T12:22:39;13.18;;;4.53;;
27383;SDS011;14851;51.166;4.760;2022-12-07T12:25:34;18.30;;;10.82;;
27383;SDS011;14851;51.166;4.760;2022-12-07T12:28:02;12.80;;;5.47;;
27383;SDS011;14851;51.166;4.760;2022-12-07T12:30:33;12.18;;;5.00;;
27383;SDS011;14851;51.166;4.760;2022-12-07T12:33:06;14.63;;;5.68;;
27383;SDS011;14851;51.166;4.760;2022-12-07T12:35:46;14.27;;;5.82;;
27383;SDS011;14851;51.166;4.760;2022-12-07T12:38:32;13.80;;;5.80;;
27383;SDS011;14851;51.166;4.760;2022-12-07T12:41:50;13.55;;;5.75;;
27383;SDS011;14851;51.166;4.760;2022-12-07T12:46:53;10.48;;;5.75;;
27383;SDS011;14851;51.166;4.760;2022-12-07T12:51:47;16.08;;;6.38;;
27383;SDS011;14851;51.166;4.760;2022-12-07T13:05:23;12.10;;;6.15;;
27383;SDS011;14851;51.166;4.760;2022-12-07T13:07:53;15.63;;;6.15;;
27383;SDS011;14851;51.166;4.760;2022-12-07T13:18:04;11.40;;;5.60;;
27383;SDS011;14851;51.166;4.760;2022-12-07T13:26:20;14.07;;;6.07;;
27383;SDS011;14851;51.166;4.760;2022-12-07T13:31:34;9.77;;;5.78;;
27383;SDS011;14851;51.166;4.760;2022-12-07T13:37:14;10.35;;;5.93;;
27383;SDS011;14851;51.166;4.760;2022-12-07T13:39:56;11.23;;;5.03;;
27383;SDS011;14851;51.166;4.760;2022-12-07T13:42:45;7.45;;;5.07;;
27383;SDS011;14851;51.166;4.760;2022-12-07T13:45:48;10.93;;;4.90;;
27383;SDS011;14851;51.166;4.760;2022-12-07T13:49:00;10.70;;;4.75;;
27383;SDS011;14851;51.166;4.760;2022-12-07T13:51:48;7.70;;;4.38;;
27383;SDS011;14851;51.166;4.760;2022-12-07T13:54:17;9.00;;;4.57;;
27383;SDS011;14851;51.166;4.760;2022-12-07T13:56:43;8.88;;;5.07;;
27383;SDS011;14851;51.166;4.760;2022-12-07T13:59:14;8.47;;;4.20;;
27383;SDS011;14851;51.166;4.760;2022-12-07T14:01:45;6.85;;;3.65;;
27383;SDS011;14851;51.166;4.760;2022-12-07T14:07:00;8.43;;;3.70;;
27383;SDS011;14851;51.166;4.760;2022-12-07T14:14:39;8.07;;;3.28;;
27383;SDS011;14851;51.166;4.760;2022-12-07T14:22:28;5.72;;;3.53;;
27383;SDS011;14851;51.166;4.760;2022-12-07T14:27:46;6.15;;;2.53;;
27383;SDS011;14851;51.166;4.760;2022-12-07T14:30:25;8.13;;;3.35;;
27383;SDS011;14851;51.166;4.760;2022-12-07T14:32:57;8.70;;;3.33;;
27383;SDS011;14851;51.166;4.760;2022-12-07T14:35:33;9.32;;;3.90;;
27383;SDS011;14851;51.166;4.760;2022-12-07T14:38:11;8.65;;;4.00;;
27383;SDS011;14851;51.166;4.760;2022-12-07T14:40:37;6.78;;;4.28;;
27383;SDS011;14851;51.166;4.760;2022-12-07T14:43:09;8.68;;;5.00;;
27383;SDS011;14851;51.166;4.760;2022-12-07T14:45:38;9.95;;;5.75;;
27383;SDS011;14851;51.166;4.760;2022-12-07T14:48:10;7.93;;;4.93;;
27383;SDS011;14851;51.166;4.760;2022-12-07T14:50:55;9.98;;;5.93;;
27383;SDS011;14851;51.166;4.760;2022-12-07T14:53:22;11.25;;;7.13;;
27383;SDS011;14851;51.166;4.760;2022-12-07T14:55:54;13.35;;;7.10;;
27383;SDS011;14851;51.166;4.760;2022-12-07T14:58:35;12.27;;;6.30;;
27383;SDS011;14851;51.166;4.760;2022-12-07T15:01:38;8.93;;;4.40;;
27383;SDS011;14851;51.166;4.760;2022-12-07T15:04:07;6.07;;;4.75;;
27383;SDS011;14851;51.166;4.760;2022-12-07T15:06:37;6.57;;;4.93;;
27383;SDS011;14851;51.166;4.760;2022-12-07T15:09:03;12.73;;;7.47;;
27383;SDS011;14851;51.166;4.760;2022-12-07T15:11:34;7.95;;;5.45;;
27383;SDS011;14851;51.166;4.760;2022-12-07T15:14:02;9.48;;;6.18;;
27383;SDS011;14851;51.166;4.760;2022-12-07T15:16:38;9.80;;;5.38;;
27383;SDS011;14851;51.166;4.760;2022-12-07T15:19:34;6.85;;;3.92;;
27383;SDS011;14851;51.166;4.760;2022-12-07T15:21:59;6.13;;;4.07;;
27383;SDS011;14851;51.166;4.760;2022-12-07T15:24:39;6.82;;;4.25;;
27383;SDS011;14851;51.166;4.760;2022-12-07T15:27:11;9.10;;;5.80;;
27383;SDS011;14851;51.166;4.760;2022-12-07T15:29:42;9.05;;;5.20;;
27383;SDS011;14851;51.166;4.760;2022-12-07T15:32:14;7.57;;;5.25;;
27383;SDS011;14851;51.166;4.760;2022-12-07T15:35:12;9.55;;;5.65;;
27383;SDS011;14851;51.166;4.760;2022-12-07T15:38:43;11.25;;;6.45;;
27383;SDS011;14851;51.166;4.760;2022-12-07T15:41:39;10.73;;;6.28;;
27383;SDS011;14851;51.166;4.760;2022-12-07T15:44:06;11.77;;;6.35;;
27383;SDS011;14851;51.166;4.760;2022-12-07T15:46:55;7.97;;;4.70;;
27383;SDS011;14851;51.166;4.760;2022-12-07T15:49:46;6.95;;;4.65;;
27383;SDS011;14851;51.166;4.760;2022-12-07T15:52:23;8.32;;;5.25;;
27383;SDS011;14851;51.166;4.760;2022-12-07T15:55:01;7.40;;;4.15;;
27383;SDS011;14851;51.166;4.760;2022-12-07T15:57:30;9.38;;;4.53;;
27383;SDS011;14851;51.166;4.760;2022-12-07T16:00:08;6.72;;;4.20;;
27383;SDS011;14851;51.166;4.760;2022-12-07T16:02:42;8.50;;;5.00;;
27383;SDS011;14851;51.166;4.760;2022-12-07T16:05:11;8.45;;;5.30;;
27383;SDS011;14851;51.166;4.760;2022-12-07T16:07:40;7.22;;;5.25;;
27383;SDS011;14851;51.166;4.760;2022-12-07T16:10:23;10.60;;;6.00;;
27383;SDS011;14851;51.166;4.760;2022-12-07T16:13:52;10.57;;;4.75;;
27383;SDS011;14851;51.166;4.760;2022-12-07T16:16:20;12.27;;;5.93;;
27383;SDS011;14851;51.166;4.760;2022-12-07T16:21:55;8.20;;;5.57;;
27383;SDS011;14851;51.166;4.760;2022-12-07T16:24:44;11.18;;;5.75;;
27383;SDS011;14851;51.166;4.760;2022-12-07T16:34:20;8.80;;;3.75;;
27383;SDS011;14851;51.166;4.760;2022-12-07T16:40:23;8.18;;;4.25;;
27383;SDS011;14851;51.166;4.760;2022-12-07T16:42:58;11.32;;;5.75;;
27383;SDS011;14851;51.166;4.760;2022-12-07T16:45:44;10.80;;;5.75;;
27383;SDS011;14851;51.166;4.760;2022-12-07T16:56:45;9.77;;;5.63;;
27383;SDS011;14851;51.166;4.760;2022-12-07T16:59:11;11.68;;;6.18;;
27383;SDS011;14851;51.166;4.760;2022-12-07T17:05:04;13.02;;;7.15;;
27383;SDS011;14851;51.166;4.760;2022-12-07T17:08:33;10.90;;;5.47;;
27383;SDS011;14851;51.166;4.760;2022-12-07T17:25:22;13.25;;;5.43;;
27383;SDS011;14851;51.166;4.760;2022-12-07T17:28:55;11.07;;;6.20;;
27383;SDS011;14851;51.166;4.760;2022-12-07T17:36:19;13.07;;;5.80;;
27383;SDS011;14851;51.166;4.760;2022-12-07T17:46:38;20.55;;;12.90;;
27383;SDS011;14851;51.166;4.760;2022-12-07T17:50:28;19.05;;;10.60;;
27383;SDS011;14851;51.166;4.760;2022-12-07T18:12:48;7.20;;;5.47;;
27383;SDS011;14851;51.166;4.760;2022-12-07T18:15:56;11.13;;;5.93;;
27383;SDS011;14851;51.166;4.760;2022-12-07T18:19:17;10.00;;;5.47;;
27383;SDS011;14851;51.166;4.760;2022-12-07T18:31:33;12.27;;;4.70;;
27383;SDS011;14851;51.166;4.760;2022-12-07T18:47:29;11.57;;;5.63;;
27383;SDS011;14851;51.166;4.760;2022-12-07T18:50:02;12.95;;;7.05;;
27383;SDS011;14851;51.166;4.760;2022-12-07T18:52:29;10.73;;;6.43;;
27383;SDS011;14851;51.166;4.760;2022-12-07T18:54:59;16.58;;;8.55;;
27383;SDS011;14851;51.166;4.760;2022-12-07T18:57:31;13.52;;;7.57;;
27383;SDS011;14851;51.166;4.760;2022-12-07T19:00:05;11.88;;;6.30;;
27383;SDS011;14851;51.166;4.760;2022-12-07T19:02:31;10.38;;;5.38;;
27383;SDS011;14851;51.166;4.760;2022-12-07T19:04:57;8.40;;;5.25;;
27383;SDS011;14851;51.166;4.760;2022-12-07T19:07:35;8.23;;;5.43;;
27383;SDS011;14851;51.166;4.760;2022-12-07T19:10:01;15.48;;;6.03;;
27383;SDS011;14851;51.166;4.760;2022-12-07T19:12:40;8.73;;;5.60;;
27383;SDS011;14851;51.166;4.760;2022-12-07T19:15:06;8.95;;;5.70;;
27383;SDS011;14851;51.166;4.760;2022-12-07T19:17:34;14.27;;;7.13;;
27383;SDS011;14851;51.166;4.760;2022-12-07T19:20:01;9.10;;;5.50;;
27383;SDS011;14851;51.166;4.760;2022-12-07T19:22:30;9.27;;;6.20;;
27383;SDS011;14851;51.166;4.760;2022-12-07T19:24:57;12.32;;;5.97;;
27383;SDS011;14851;51.166;4.760;2022-12-07T19:27:27;11.75;;;6.03;;
27383;SDS011;14851;51.166;4.760;2022-12-07T19:34:23;10.65;;;5.72;;
27383;SDS011;14851;51.166;4.760;2022-12-07T19:36:49;11.38;;;5.85;;